createdAt,value
2023-02-19T00:01:51.760Z,26.58
2023-02-19T00:04:22.689Z,35.47
2023-02-19T00:06:50.427Z,24.98
2023-02-19T00:09:19.246Z,95.43
2023-02-19T00:11:47.907Z,53.78
2023-02-19T00:14:18.211Z,43.05
2023-02-19T00:16:45.884Z,36.80
2023-02-19T00:19:16.602Z,23.58
2023-02-19T00:21:44.120Z,35.40
2023-02-19T00:24:13.265Z,30.67
2023-02-19T00:26:41.520Z,29.13
2023-02-19T00:29:12.919Z,22.60
2023-02-19T00:31:41.261Z,25.00
2023-02-19T00:34:10.431Z,16.08
2023-02-19T00:36:39.298Z,18.10
2023-02-19T00:39:08.158Z,16.42
2023-02-19T00:41:35.890Z,16.88
2023-02-19T00:44:06.362Z,15.25
2023-02-19T00:46:39.851Z,15.93
2023-02-19T00:49:08.748Z,14.65
2023-02-19T00:51:38.101Z,27.23
2023-02-19T00:54:06.361Z,56.65
2023-02-19T00:56:34.023Z,21.77
2023-02-19T00:59:01.795Z,18.40
2023-02-19T01:01:28.852Z,22.00
2023-02-19T01:03:56.298Z,28.50
2023-02-19T01:06:23.801Z,22.50
2023-02-19T01:08:51.504Z,17.77
2023-02-19T01:11:20.388Z,23.65
2023-02-19T01:13:48.009Z,21.70
2023-02-19T01:16:24.737Z,21.23
2023-02-19T01:18:52.932Z,22.10
2023-02-19T01:21:22.957Z,15.38
2023-02-19T01:23:52.314Z,18.40
2023-02-19T01:26:22.945Z,19.77
2023-02-19T01:28:51.552Z,18.95
2023-02-19T01:31:21.672Z,22.23
2023-02-19T01:33:56.387Z,14.43
2023-02-19T01:36:24.237Z,19.33
2023-02-19T01:38:52.066Z,22.40
2023-02-19T01:41:25.139Z,23.70
2023-02-19T01:44:08.927Z,21.50
2023-02-19T01:46:37.835Z,13.15
2023-02-19T01:49:14.877Z,13.13
2023-02-19T01:51:49.298Z,12.95
2023-02-19T01:54:22.788Z,15.20
2023-02-19T01:56:51.339Z,16.13
2023-02-19T01:59:19.266Z,15.45
2023-02-19T02:01:46.584Z,13.95
2023-02-19T02:04:14.691Z,15.77
2023-02-19T02:06:54.815Z,13.90
2023-02-19T02:09:48.308Z,12.20
2023-02-19T02:12:15.718Z,11.65
2023-02-19T02:14:46.184Z,12.13
2023-02-19T02:17:16.136Z,14.60
2023-02-19T02:20:08.144Z,13.57
2023-02-19T02:22:52.919Z,14.40
2023-02-19T02:25:41.463Z,16.00
2023-02-19T02:28:08.927Z,14.70
2023-02-19T02:30:56.102Z,10.27
2023-02-19T02:33:45.728Z,18.17
2023-02-19T02:36:27.648Z,22.52
2023-02-19T02:38:56.916Z,11.90
2023-02-19T02:41:25.204Z,7.13
2023-02-19T02:43:52.756Z,14.27
2023-02-19T02:46:30.080Z,6.55
2023-02-19T02:49:00.148Z,13.35
2023-02-19T02:51:31.907Z,15.73
2023-02-19T02:54:29.547Z,10.93
2023-02-19T02:56:59.864Z,11.52
2023-02-19T02:59:34.752Z,14.90
2023-02-19T03:02:14.254Z,12.95
2023-02-19T03:05:27.832Z,10.52
2023-02-19T03:08:08.108Z,13.02
2023-02-19T03:11:21.756Z,12.18
2023-02-19T03:14:12.987Z,8.02
2023-02-19T03:17:01.751Z,13.25
2023-02-19T03:19:32.974Z,19.85
2023-02-19T03:22:01.961Z,10.32
2023-02-19T03:24:51.699Z,9.25
2023-02-19T03:27:21.408Z,14.30
2023-02-19T03:29:56.524Z,13.10
2023-02-19T03:32:39.887Z,14.23
2023-02-19T03:35:14.936Z,11.48
2023-02-19T03:37:53.069Z,9.80
2023-02-19T03:40:25.006Z,13.10
2023-02-19T03:43:07.523Z,11.15
2023-02-19T03:46:08.745Z,9.60
2023-02-19T03:48:40.347Z,6.10
2023-02-19T03:51:24.356Z,12.87
2023-02-19T03:54:09.542Z,11.05
2023-02-19T03:59:44.609Z,12.85
2023-02-19T04:02:42.918Z,14.02
2023-02-19T04:05:15.871Z,13.98
2023-02-19T04:07:48.051Z,13.27
2023-02-19T04:10:20.665Z,9.88
2023-02-19T04:13:03.988Z,10.13
2023-02-19T04:15:34.000Z,13.13
2023-02-19T04:18:07.726Z,8.63
2023-02-19T04:20:41.883Z,14.10
2023-02-19T04:23:09.580Z,11.48
2023-02-19T04:25:39.057Z,6.82
2023-02-19T04:28:08.823Z,9.00
2023-02-19T04:30:35.877Z,11.10
2023-02-19T04:33:03.194Z,10.77
2023-02-19T04:35:30.256Z,10.57
2023-02-19T04:37:57.769Z,11.45
2023-02-19T04:40:24.827Z,35.42
2023-02-19T04:42:52.302Z,8.38
2023-02-19T04:45:19.371Z,12.43
2023-02-19T04:47:46.801Z,12.13
2023-02-19T04:50:14.315Z,11.93
2023-02-19T04:52:41.976Z,11.23
2023-02-19T04:55:09.757Z,14.60
2023-02-19T04:57:37.094Z,16.17
2023-02-19T05:00:04.790Z,12.95
2023-02-19T05:02:32.141Z,14.18
2023-02-19T05:04:59.353Z,9.32
2023-02-19T05:07:27.024Z,14.70
2023-02-19T05:09:54.053Z,11.20
2023-02-19T05:12:21.632Z,17.90
2023-02-19T05:14:49.352Z,16.88
2023-02-19T05:17:17.499Z,11.23
2023-02-19T05:19:45.108Z,10.45
2023-02-19T05:22:12.627Z,8.90
2023-02-19T05:24:39.753Z,14.70
2023-02-19T05:27:07.366Z,11.52
2023-02-19T05:29:34.802Z,12.90
2023-02-19T05:32:02.121Z,13.98
2023-02-19T05:34:29.380Z,9.02
2023-02-19T05:36:56.927Z,13.27
2023-02-19T05:39:24.018Z,10.70
2023-02-19T05:41:51.314Z,8.80
2023-02-19T05:44:18.458Z,15.13
2023-02-19T05:46:45.805Z,15.30
2023-02-19T05:49:13.380Z,13.00
2023-02-19T05:51:40.681Z,10.30
2023-02-19T05:54:07.795Z,11.57
2023-02-19T05:56:42.668Z,17.05
2023-02-19T05:59:21.593Z,14.95
2023-02-19T06:01:51.008Z,16.75
2023-02-19T06:04:20.007Z,15.52
2023-02-19T06:06:48.329Z,9.68
2023-02-19T06:09:15.966Z,44.58
2023-02-19T06:11:44.098Z,28.25
2023-02-19T06:14:13.901Z,12.98
2023-02-19T06:16:41.750Z,12.32
2023-02-19T06:19:09.614Z,10.07
2023-02-19T06:21:39.920Z,10.93
2023-02-19T06:24:09.168Z,12.57
2023-02-19T06:26:37.090Z,15.32
2023-02-19T06:29:04.675Z,16.42
2023-02-19T06:31:32.257Z,9.10
2023-02-19T06:33:59.362Z,14.00
2023-02-19T06:36:26.867Z,11.07
2023-02-19T06:38:53.908Z,18.13
2023-02-19T06:41:21.288Z,20.15
2023-02-19T06:43:48.458Z,12.82
2023-02-19T06:46:15.821Z,14.25
2023-02-19T06:48:48.738Z,11.70
2023-02-19T06:51:19.566Z,11.18
2023-02-19T06:53:47.058Z,9.73
2023-02-19T06:56:28.204Z,12.32
2023-02-19T06:58:57.878Z,14.63
2023-02-19T07:01:25.896Z,20.13
2023-02-19T07:03:54.846Z,17.67
2023-02-19T07:06:23.984Z,37.97
2023-02-19T07:08:51.964Z,50.45
2023-02-19T07:11:19.629Z,34.33
2023-02-19T07:13:47.557Z,24.75
2023-02-19T07:16:15.457Z,24.60
2023-02-19T07:18:42.596Z,38.88
2023-02-19T07:21:13.554Z,13.82
2023-02-19T07:23:41.792Z,46.05
2023-02-19T07:26:10.652Z,24.95
2023-02-19T07:28:37.795Z,25.33
2023-02-19T07:31:05.400Z,37.05
2023-02-19T07:33:32.863Z,31.50
2023-02-19T07:36:00.782Z,24.92
2023-02-19T07:38:30.771Z,41.78
2023-02-19T07:41:00.428Z,55.65
2023-02-19T07:43:32.117Z,50.13
2023-02-19T07:46:02.628Z,48.67
2023-02-19T07:48:29.680Z,68.35
2023-02-19T07:50:59.585Z,41.83
2023-02-19T07:53:28.980Z,34.80
2023-02-19T07:56:05.535Z,26.17
2023-02-19T07:58:33.480Z,26.67
2023-02-19T08:01:08.668Z,32.10
2023-02-19T08:06:06.896Z,55.28
2023-02-19T08:08:34.293Z,62.65
2023-02-19T08:11:21.082Z,47.42
2023-02-19T08:13:50.185Z,36.63
2023-02-19T08:16:29.672Z,28.52
2023-02-19T08:19:04.315Z,35.63
2023-02-19T08:21:33.493Z,38.53
2023-02-19T08:24:02.144Z,29.73
2023-02-19T08:26:34.126Z,27.00
2023-02-19T08:29:01.688Z,22.15
2023-02-19T08:31:30.164Z,30.92
2023-02-19T08:33:57.630Z,30.05
2023-02-19T08:36:25.696Z,41.17
2023-02-19T08:38:52.769Z,52.08
2023-02-19T08:41:22.197Z,34.05
2023-02-19T08:43:49.768Z,36.67
2023-02-19T08:46:17.135Z,36.28
2023-02-19T08:48:47.239Z,36.17
2023-02-19T08:51:14.934Z,38.95
2023-02-19T08:53:42.610Z,48.85
2023-02-19T08:56:13.080Z,36.70
2023-02-19T08:58:44.854Z,31.05
2023-02-19T09:01:18.339Z,35.67
2023-02-19T09:03:46.061Z,29.05
2023-02-19T09:06:20.695Z,32.00
2023-02-19T09:08:49.357Z,55.35
2023-02-19T09:11:17.094Z,42.40
2023-02-19T09:13:44.603Z,30.65
2023-02-19T09:16:12.540Z,42.10
2023-02-19T09:18:40.057Z,47.10
2023-02-19T09:21:11.034Z,59.90
2023-02-19T09:23:38.319Z,43.03
2023-02-19T09:26:07.656Z,62.55
2023-02-19T09:28:34.766Z,59.30
2023-02-19T09:31:06.568Z,34.10
2023-02-19T09:33:35.826Z,33.50
2023-02-19T09:36:03.590Z,24.70
2023-02-19T09:38:31.028Z,28.17
2023-02-19T09:40:59.887Z,33.55
2023-02-19T09:43:29.910Z,64.75
2023-02-19T09:46:29.216Z,44.58
2023-02-19T09:49:03.588Z,26.48
2023-02-19T09:51:34.523Z,21.23
2023-02-19T09:54:04.158Z,44.85
2023-02-19T09:56:31.585Z,28.52
2023-02-19T09:59:00.062Z,13.07
2023-02-19T10:01:34.535Z,11.70
2023-02-19T10:04:02.051Z,9.63
2023-02-19T10:06:30.278Z,14.73
2023-02-19T10:09:21.640Z,13.07
2023-02-19T10:11:49.917Z,14.18
2023-02-19T10:14:41.837Z,64.97
2023-02-19T10:17:20.800Z,53.42
2023-02-19T10:19:48.302Z,91.90
2023-02-19T10:22:19.253Z,73.95
2023-02-19T10:24:51.827Z,171.30
2023-02-19T10:27:19.330Z,94.95
2023-02-19T10:29:48.427Z,62.97
2023-02-19T10:32:20.969Z,257.70
2023-02-19T10:34:48.438Z,39.22
2023-02-19T10:37:19.181Z,64.75
2023-02-19T10:39:47.975Z,34.65
2023-02-19T10:42:24.291Z,28.15
2023-02-19T10:44:58.585Z,16.35
2023-02-19T10:47:27.250Z,14.48
2023-02-19T10:49:58.370Z,9.23
2023-02-19T10:52:32.712Z,14.10
2023-02-19T10:55:23.580Z,12.65
2023-02-19T10:57:51.078Z,18.20
2023-02-19T11:00:22.896Z,30.00
2023-02-19T11:02:52.957Z,26.02
2023-02-19T11:05:23.265Z,24.67
2023-02-19T11:07:55.958Z,26.88
2023-02-19T11:10:29.210Z,39.08
2023-02-19T11:13:07.939Z,42.20
2023-02-19T11:15:37.215Z,44.03
2023-02-19T11:18:14.061Z,30.05
2023-02-19T11:20:54.503Z,34.10
2023-02-19T11:23:32.275Z,32.58
2023-02-19T11:26:06.528Z,64.25
2023-02-19T11:28:37.342Z,33.92
2023-02-19T11:31:19.739Z,74.88
2023-02-19T11:34:15.756Z,72.25
2023-02-19T11:36:53.764Z,94.95
2023-02-19T11:39:33.774Z,175.30
2023-02-19T11:42:09.738Z,43.22
2023-02-19T11:44:39.153Z,123.50
2023-02-19T11:47:31.764Z,185.27
2023-02-19T11:50:13.543Z,109.93
2023-02-19T11:53:15.557Z,106.22
2023-02-19T11:55:59.032Z,83.30
2023-02-19T11:58:56.274Z,84.68
2023-02-19T12:01:42.200Z,89.45
2023-02-19T12:04:27.165Z,58.58
2023-02-19T12:07:15.916Z,94.93
2023-02-19T12:09:55.852Z,197.63
2023-02-19T12:13:00.786Z,108.22
2023-02-19T12:15:28.328Z,53.03
2023-02-19T12:18:33.353Z,46.38
2023-02-19T12:21:11.090Z,61.65
2023-02-19T12:24:06.364Z,54.63
2023-02-19T12:26:55.671Z,120.13
2023-02-19T12:29:32.355Z,51.03
2023-02-19T12:32:20.188Z,32.45
2023-02-19T12:34:59.611Z,18.95
2023-02-19T12:37:42.011Z,12.30
2023-02-19T12:40:27.192Z,28.33
2023-02-19T12:43:09.106Z,43.13
2023-02-19T12:45:43.068Z,27.75
2023-02-19T12:48:26.874Z,29.83
2023-02-19T12:51:02.666Z,45.70
2023-02-19T12:53:47.344Z,35.15
2023-02-19T12:56:29.308Z,35.95
2023-02-19T12:59:15.805Z,26.38
2023-02-19T13:02:11.546Z,15.65
2023-02-19T13:04:51.284Z,15.52
2023-02-19T13:07:46.549Z,277.77
2023-02-19T13:10:28.867Z,184.13
2023-02-19T13:13:01.662Z,120.93
2023-02-19T13:15:42.270Z,175.15
2023-02-19T13:18:32.850Z,183.65
2023-02-19T13:21:01.021Z,244.32
2023-02-19T13:23:57.268Z,199.70
2023-02-19T13:26:43.857Z,123.15
2023-02-19T13:29:27.732Z,118.22
2023-02-19T13:32:14.181Z,56.38
2023-02-19T13:34:51.265Z,55.10
2023-02-19T13:37:22.018Z,58.92
2023-02-19T13:39:52.172Z,48.35
2023-02-19T13:42:27.244Z,146.20
2023-02-19T13:47:49.836Z,20.00
2023-02-19T13:50:20.982Z,25.90
2023-02-19T13:52:48.346Z,21.35
2023-02-19T13:55:44.195Z,10.90
2023-02-19T13:58:53.986Z,25.50
2023-02-19T14:01:51.383Z,9.20
2023-02-19T14:04:26.392Z,23.30
2023-02-19T14:07:05.947Z,9.40
2023-02-19T14:09:43.860Z,51.35
2023-02-19T14:12:15.841Z,26.42
2023-02-19T14:14:46.723Z,23.70
2023-02-19T14:17:40.253Z,29.73
2023-02-19T14:20:16.391Z,24.15
2023-02-19T14:22:46.792Z,13.82
2023-02-19T14:25:31.758Z,15.80
2023-02-19T14:28:17.069Z,19.40
2023-02-19T14:31:20.258Z,10.65
2023-02-19T14:33:50.466Z,9.13
2023-02-19T14:36:45.061Z,19.80
2023-02-19T14:39:16.860Z,20.57
2023-02-19T14:41:53.785Z,23.30
2023-02-19T14:44:25.197Z,23.75
2023-02-19T14:49:47.941Z,252.77
2023-02-19T14:52:45.660Z,74.47
2023-02-19T14:55:36.228Z,54.15
2023-02-19T14:58:26.155Z,49.25
2023-02-19T15:00:54.871Z,65.75
2023-02-19T15:03:24.767Z,139.73
2023-02-19T15:06:17.541Z,135.95
2023-02-19T15:08:48.404Z,154.40
2023-02-19T15:11:21.587Z,141.52
2023-02-19T15:13:52.634Z,262.70
2023-02-19T15:16:25.314Z,81.45
2023-02-19T15:18:54.452Z,62.40
2023-02-19T15:21:32.654Z,52.45
2023-02-19T15:24:05.959Z,119.18
2023-02-19T15:26:37.404Z,226.95
2023-02-19T15:29:11.125Z,205.48
2023-02-19T15:31:55.991Z,204.33
2023-02-19T15:34:33.057Z,124.30
2023-02-19T15:37:05.262Z,198.27
2023-02-19T15:39:39.871Z,193.75
2023-02-19T15:42:17.545Z,59.17
2023-02-19T15:44:57.182Z,141.85
2023-02-19T15:47:33.659Z,97.03
2023-02-19T15:50:18.612Z,46.08
2023-02-19T15:53:09.932Z,54.08
2023-02-19T15:55:45.522Z,103.20
2023-02-19T15:58:34.881Z,68.10
2023-02-19T16:01:11.004Z,63.75
2023-02-19T16:03:38.999Z,70.60
2023-02-19T16:06:10.436Z,51.85
2023-02-19T16:08:39.958Z,179.48
2023-02-19T16:11:32.968Z,182.13
2023-02-19T16:14:37.088Z,96.55
2023-02-19T16:17:10.654Z,153.40
2023-02-19T16:19:53.268Z,119.80
2023-02-19T16:22:24.426Z,67.15
2023-02-19T16:24:55.887Z,74.32
2023-02-19T16:27:41.301Z,31.98
2023-02-19T16:30:17.922Z,34.92
2023-02-19T16:32:47.019Z,31.58
2023-02-19T16:35:36.796Z,82.10
2023-02-19T16:38:13.982Z,47.92
2023-02-19T16:41:06.133Z,69.70
2023-02-19T16:43:43.288Z,51.60
2023-02-19T16:46:12.464Z,60.15
2023-02-19T16:48:39.694Z,94.72
2023-02-19T16:51:09.018Z,124.53
2023-02-19T16:53:36.356Z,78.03
2023-02-19T16:56:03.961Z,68.25
2023-02-19T16:58:31.277Z,93.10
2023-02-19T17:01:01.988Z,68.03
2023-02-19T17:03:29.149Z,64.80
2023-02-19T17:05:57.005Z,69.72
2023-02-19T17:08:39.048Z,48.05
2023-02-19T17:11:12.819Z,59.28
2023-02-19T17:13:40.763Z,41.15
2023-02-19T17:16:08.613Z,33.25
2023-02-19T17:18:35.939Z,60.00
2023-02-19T17:21:21.057Z,45.78
2023-02-19T17:23:48.718Z,42.17
2023-02-19T17:26:19.970Z,46.13
2023-02-19T17:28:47.795Z,45.53
2023-02-19T17:31:15.703Z,31.95
2023-02-19T17:33:44.790Z,35.47
2023-02-19T17:36:20.133Z,28.33
2023-02-19T17:41:14.542Z,32.70
2023-02-19T17:43:44.467Z,35.50
2023-02-19T17:46:24.306Z,22.13
2023-02-19T17:48:51.763Z,19.02
2023-02-19T17:51:19.650Z,26.30
2023-02-19T17:53:46.965Z,34.80
2023-02-19T17:56:20.915Z,36.92
2023-02-19T17:58:48.378Z,30.25
2023-02-19T18:01:16.215Z,32.45
2023-02-19T18:03:43.956Z,32.33
2023-02-19T18:06:11.485Z,46.47
2023-02-19T18:08:38.787Z,67.20
2023-02-19T18:11:08.591Z,67.00
2023-02-19T18:13:36.830Z,40.13
2023-02-19T18:16:05.801Z,38.80
2023-02-19T18:18:32.954Z,29.90
2023-02-19T18:21:00.933Z,51.40
2023-02-19T18:23:31.295Z,22.83
2023-02-19T18:26:01.473Z,40.45
2023-02-19T18:28:28.644Z,29.85
2023-02-19T18:30:58.280Z,26.73
2023-02-19T18:33:26.046Z,15.75
2023-02-19T18:35:53.844Z,22.13
2023-02-19T18:38:21.334Z,20.58
2023-02-19T18:40:49.839Z,18.25
2023-02-19T18:43:16.999Z,97.78
2023-02-19T18:45:45.378Z,79.60
2023-02-19T18:48:13.105Z,21.45
2023-02-19T18:50:40.572Z,16.15
2023-02-19T18:53:07.676Z,25.95
2023-02-19T18:55:35.172Z,13.18
2023-02-19T18:58:02.450Z,15.25
2023-02-19T19:00:30.154Z,16.08
2023-02-19T19:02:59.730Z,114.18
2023-02-19T19:05:27.610Z,355.52
2023-02-19T19:07:57.591Z,201.30
2023-02-19T19:10:25.522Z,19.75
2023-02-19T19:12:54.166Z,18.00
2023-02-19T19:15:24.879Z,16.90
2023-02-19T19:17:52.218Z,17.90
2023-02-19T19:20:21.448Z,19.65
2023-02-19T19:22:52.746Z,26.70
2023-02-19T19:25:21.488Z,32.28
2023-02-19T19:27:50.749Z,23.98
2023-02-19T19:30:19.996Z,15.85
2023-02-19T19:32:51.838Z,19.90
2023-02-19T19:35:24.352Z,13.43
2023-02-19T19:37:51.791Z,41.65
2023-02-19T19:40:19.972Z,14.68
2023-02-19T19:42:47.705Z,20.58
2023-02-19T19:45:17.451Z,17.13
2023-02-19T19:47:44.519Z,12.18
2023-02-19T19:50:13.245Z,10.52
2023-02-19T19:52:40.643Z,19.13
2023-02-19T19:55:08.917Z,19.40
2023-02-19T19:57:36.382Z,18.63
2023-02-19T20:00:04.767Z,49.20
2023-02-19T20:02:39.462Z,22.83
2023-02-19T20:05:07.394Z,14.95
2023-02-19T20:07:34.512Z,28.80
2023-02-19T20:10:01.660Z,33.70
2023-02-19T20:12:29.528Z,20.05
2023-02-19T20:14:57.067Z,34.78
2023-02-19T20:17:27.417Z,68.75
2023-02-19T20:19:56.670Z,80.32
2023-02-19T20:22:24.740Z,123.50
2023-02-19T20:24:53.855Z,91.40
2023-02-19T20:27:22.752Z,65.90
2023-02-19T20:29:50.280Z,139.73
2023-02-19T20:32:21.380Z,97.95
2023-02-19T20:34:51.659Z,116.80
2023-02-19T20:37:19.433Z,129.30
2023-02-19T20:39:46.481Z,62.30
2023-02-19T20:42:16.765Z,69.20
2023-02-19T20:44:45.228Z,65.68
2023-02-19T20:47:12.806Z,73.05
2023-02-19T20:49:45.853Z,84.15
2023-02-19T20:52:15.863Z,59.58
2023-02-19T20:54:44.406Z,49.42
2023-02-19T20:57:14.305Z,57.13
2023-02-19T20:59:44.263Z,69.32
2023-02-19T21:02:24.930Z,49.15
2023-02-19T21:04:52.179Z,42.00
2023-02-19T21:07:20.010Z,52.67
2023-02-19T21:09:47.062Z,45.80
2023-02-19T21:12:14.449Z,39.30
2023-02-19T21:14:41.586Z,42.60
2023-02-19T21:17:09.712Z,43.72
2023-02-19T21:19:36.945Z,40.58
2023-02-19T21:22:04.760Z,43.13
2023-02-19T21:24:32.788Z,41.97
2023-02-19T21:27:00.248Z,34.38
2023-02-19T21:29:27.782Z,31.05
2023-02-19T21:31:57.206Z,49.67
2023-02-19T21:34:29.303Z,40.40
2023-02-19T21:36:57.381Z,37.50
2023-02-19T21:39:27.782Z,32.85
2023-02-19T21:41:55.370Z,41.58
2023-02-19T21:44:22.490Z,30.15
2023-02-19T21:46:49.948Z,38.70
2023-02-19T21:49:17.673Z,32.15
2023-02-19T21:51:47.886Z,43.33
2023-02-19T21:54:21.694Z,36.33
2023-02-19T21:56:49.064Z,38.72
2023-02-19T21:59:21.612Z,38.10
2023-02-19T22:01:50.550Z,34.58
2023-02-19T22:04:20.359Z,37.88
2023-02-19T22:06:47.784Z,30.10
2023-02-19T22:09:15.641Z,28.48
2023-02-19T22:11:43.154Z,30.20
2023-02-19T22:14:10.275Z,35.97
2023-02-19T22:16:37.798Z,27.02
2023-02-19T22:19:04.961Z,18.65
2023-02-19T22:21:32.738Z,24.88
2023-02-19T22:24:01.768Z,23.23
2023-02-19T22:26:32.190Z,19.15
2023-02-19T22:28:59.790Z,32.45
2023-02-19T22:31:28.356Z,19.38
2023-02-19T22:33:57.725Z,17.00
2023-02-19T22:36:27.715Z,17.02
2023-02-19T22:38:55.190Z,17.73
2023-02-19T22:41:23.180Z,17.92
2023-02-19T22:43:50.445Z,18.70
2023-02-19T22:46:20.626Z,15.10
2023-02-19T22:48:47.781Z,11.00
2023-02-19T22:51:21.323Z,16.52
2023-02-19T22:53:52.322Z,14.13
2023-02-19T22:56:22.254Z,11.82
2023-02-19T22:58:50.575Z,14.73
2023-02-19T23:01:18.309Z,10.38
2023-02-19T23:03:50.929Z,9.48
2023-02-19T23:06:25.752Z,11.05
2023-02-19T23:08:58.225Z,10.63
2023-02-19T23:11:31.122Z,11.43
2023-02-19T23:13:58.666Z,9.18
2023-02-19T23:16:26.577Z,14.55
2023-02-19T23:18:55.358Z,14.98
2023-02-19T23:21:23.398Z,9.52
2023-02-19T23:23:53.095Z,11.57
2023-02-19T23:26:20.523Z,10.65
2023-02-19T23:28:48.028Z,14.30
2023-02-19T23:31:16.223Z,9.45
2023-02-19T23:33:43.915Z,8.23
2023-02-19T23:36:13.080Z,12.02
2023-02-19T23:38:40.856Z,9.63
2023-02-19T23:45:16.638Z,14.52
2023-02-19T23:47:43.611Z,12.82
2023-02-19T23:50:11.085Z,15.98
2023-02-19T23:52:38.084Z,11.50
2023-02-19T23:55:05.838Z,12.02
2023-02-19T23:57:33.303Z,10.07
